createdAt,value
2018-03-16T00:01:12.421Z,98.20
2018-03-16T00:03:39.954Z,98.10
2018-03-16T00:06:07.497Z,98.20
2018-03-16T00:08:35.804Z,98.20
2018-03-16T00:11:03.382Z,98.20
2018-03-16T00:13:30.944Z,98.20
2018-03-16T00:15:58.501Z,98.20
2018-03-16T00:18:26.038Z,98.40
2018-03-16T00:20:54.344Z,98.40
2018-03-16T00:23:21.875Z,98.40
2018-03-16T00:25:50.210Z,98.50
2018-03-16T00:28:18.520Z,98.40
2018-03-16T00:30:46.097Z,98.40
2018-03-16T00:33:13.663Z,98.40
2018-03-16T00:35:41.188Z,98.70
2018-03-16T00:38:08.728Z,98.50
2018-03-16T00:40:36.268Z,98.40
2018-03-16T00:43:04.579Z,98.70
2018-03-16T00:45:32.115Z,98.60
2018-03-16T00:47:59.694Z,98.70
2018-03-16T00:50:27.995Z,98.50
2018-03-16T00:52:55.535Z,98.50
2018-03-16T00:55:23.844Z,98.70
2018-03-16T00:57:51.419Z,98.70
2018-03-16T01:00:19.061Z,98.50
2018-03-16T01:02:47.374Z,98.50
2018-03-16T01:05:14.932Z,98.50
2018-03-16T01:07:42.458Z,98.60
2018-03-16T01:10:10.769Z,98.50
2018-03-16T01:12:38.398Z,98.50
2018-03-16T01:15:05.928Z,98.50
2018-03-16T01:17:33.462Z,98.50
2018-03-16T01:20:01.793Z,98.50
2018-03-16T01:22:29.431Z,98.50
2018-03-16T01:24:56.974Z,98.60
2018-03-16T01:27:24.534Z,98.70
2018-03-16T01:29:52.833Z,98.60
2018-03-16T01:32:20.381Z,98.50
2018-03-16T01:34:48.786Z,98.70
2018-03-16T01:37:16.339Z,98.70
2018-03-16T01:39:43.887Z,98.50
2018-03-16T01:42:12.202Z,98.70
2018-03-16T01:44:39.773Z,98.70
2018-03-16T01:47:07.300Z,98.70
2018-03-16T01:49:35.616Z,98.70
2018-03-16T01:52:03.142Z,98.70
2018-03-16T01:54:31.453Z,99.00
2018-03-16T01:56:59.099Z,98.70
2018-03-16T01:59:27.408Z,98.60
2018-03-16T02:01:54.955Z,98.60
2018-03-16T02:04:23.266Z,98.60
2018-03-16T02:06:50.810Z,98.60
2018-03-16T02:09:18.347Z,98.50
2018-03-16T02:11:45.922Z,98.60
2018-03-16T02:14:14.236Z,98.50
2018-03-16T02:16:41.775Z,98.60
2018-03-16T02:19:10.051Z,98.30
2018-03-16T02:21:38.363Z,98.40
2018-03-16T02:24:05.916Z,98.30
2018-03-16T02:26:34.273Z,98.40
2018-03-16T02:29:01.818Z,98.40
2018-03-16T02:31:29.356Z,98.30
2018-03-16T02:33:56.900Z,98.40
2018-03-16T02:36:24.440Z,98.50
2018-03-16T02:38:51.987Z,98.50
2018-03-16T02:41:19.531Z,98.60
2018-03-16T02:43:47.878Z,98.50
2018-03-16T02:46:15.424Z,98.70
2018-03-16T02:48:43.723Z,98.50
2018-03-16T02:51:11.269Z,98.50
2018-03-16T02:53:38.817Z,98.60
2018-03-16T02:56:06.339Z,98.50
2018-03-16T02:58:33.889Z,98.60
2018-03-16T03:01:01.435Z,98.50
2018-03-16T03:03:29.727Z,98.60
2018-03-16T03:05:57.262Z,98.60
2018-03-16T03:08:24.799Z,98.60
2018-03-16T03:10:52.338Z,98.60
2018-03-16T03:13:19.962Z,98.60
2018-03-16T03:15:47.499Z,98.60
2018-03-16T03:18:15.055Z,98.90
2018-03-16T03:20:42.604Z,98.60
2018-03-16T03:23:10.153Z,98.60
2018-03-16T03:25:38.449Z,98.80
2018-03-16T03:28:05.986Z,98.80
2018-03-16T03:30:34.294Z,98.90
2018-03-16T03:33:01.842Z,98.90
2018-03-16T03:35:29.395Z,99.00
2018-03-16T03:37:57.685Z,99.00
2018-03-16T03:40:25.989Z,99.10
2018-03-16T03:42:53.532Z,99.00
2018-03-16T03:45:21.845Z,99.10
2018-03-16T03:47:49.391Z,99.10
2018-03-16T03:50:16.916Z,99.10
2018-03-16T03:52:44.455Z,99.10
2018-03-16T03:55:12.017Z,99.00
2018-03-16T03:57:39.562Z,98.90
2018-03-16T04:00:07.135Z,98.90
2018-03-16T04:02:34.691Z,98.90
2018-03-16T04:05:02.246Z,98.80
2018-03-16T04:07:30.546Z,99.00
2018-03-16T04:09:58.095Z,99.00
2018-03-16T04:12:25.630Z,99.00
2018-03-16T04:14:53.220Z,99.10
2018-03-16T04:17:20.760Z,99.10
2018-03-16T04:19:48.299Z,99.10
2018-03-16T04:22:15.836Z,99.20
2018-03-16T04:24:43.975Z,99.30
2018-03-16T04:27:11.509Z,99.40
2018-03-16T04:29:39.064Z,99.40
2018-03-16T04:32:06.643Z,99.40
2018-03-16T04:34:34.193Z,99.50
2018-03-16T04:37:01.738Z,99.50
2018-03-16T04:39:29.302Z,99.50
2018-03-16T04:41:56.847Z,99.60
2018-03-16T04:44:25.159Z,99.70
2018-03-16T04:46:52.741Z,99.70
2018-03-16T04:49:20.292Z,99.80
2018-03-16T04:51:47.849Z,99.70
2018-03-16T04:54:15.378Z,99.90
2018-03-16T04:56:43.679Z,99.80
2018-03-16T04:59:11.219Z,99.80
2018-03-16T05:01:38.741Z,99.80
2018-03-16T05:04:06.294Z,99.80
2018-03-16T05:06:33.857Z,99.80
2018-03-16T05:09:01.403Z,99.80
2018-03-16T05:11:29.727Z,99.90
2018-03-16T05:13:57.262Z,99.90
2018-03-16T05:16:24.815Z,99.90
2018-03-16T05:18:53.142Z,99.90
2018-03-16T05:21:20.677Z,99.90
2018-03-16T05:23:48.232Z,99.90
2018-03-16T05:26:15.776Z,99.90
2018-03-16T05:28:43.522Z,99.90
2018-03-16T05:31:11.081Z,99.90
2018-03-16T05:33:38.670Z,99.90
2018-03-16T05:36:06.242Z,99.90
2018-03-16T05:38:33.785Z,99.90
2018-03-16T05:41:01.329Z,99.90
2018-03-16T05:43:28.896Z,99.90
2018-03-16T05:45:56.478Z,99.90
2018-03-16T05:48:24.031Z,99.90
2018-03-16T05:50:51.621Z,99.90
2018-03-16T05:53:19.250Z,99.90
2018-03-16T05:55:46.788Z,99.90
2018-03-16T05:58:15.096Z,99.90
2018-03-16T06:00:42.727Z,99.90
2018-03-16T06:03:10.278Z,99.90
2018-03-16T06:05:37.818Z,99.90
2018-03-16T06:08:05.390Z,99.90
2018-03-16T06:10:32.938Z,99.90
2018-03-16T06:13:00.491Z,99.90
2018-03-16T06:15:28.257Z,99.90
2018-03-16T06:17:55.801Z,99.90
2018-03-16T06:20:24.116Z,99.90
2018-03-16T06:22:51.652Z,99.90
2018-03-16T06:25:19.985Z,99.90
2018-03-16T06:27:48.294Z,99.90
2018-03-16T06:30:16.620Z,99.90
2018-03-16T06:32:44.150Z,99.90
2018-03-16T06:35:12.479Z,99.90
2018-03-16T06:37:40.188Z,99.90
2018-03-16T06:40:07.745Z,99.90
2018-03-16T06:42:35.281Z,99.90
2018-03-16T06:45:02.950Z,99.90
2018-03-16T06:47:30.384Z,99.70
2018-03-16T06:49:58.729Z,99.70
2018-03-16T06:52:26.239Z,99.70
2018-03-16T06:54:53.779Z,99.70
2018-03-16T06:57:22.088Z,99.70
2018-03-16T06:59:49.618Z,99.70
2018-03-16T07:02:17.148Z,99.70
2018-03-16T07:04:44.689Z,99.70
2018-03-16T07:07:12.259Z,99.70
2018-03-16T07:09:39.845Z,99.70
2018-03-16T07:12:07.439Z,99.70
2018-03-16T07:14:35.010Z,99.50
2018-03-16T07:17:02.575Z,99.60
2018-03-16T07:19:30.125Z,99.60
2018-03-16T07:21:57.658Z,99.50
2018-03-16T07:24:25.209Z,99.60
2018-03-16T07:26:52.778Z,99.50
2018-03-16T07:29:20.328Z,99.50
2018-03-16T07:31:48.626Z,99.30
2018-03-16T07:34:16.179Z,99.30
2018-03-16T07:36:43.772Z,99.40
2018-03-16T07:39:11.310Z,99.30
2018-03-16T07:41:38.863Z,99.40
2018-03-16T07:44:07.201Z,99.60
2018-03-16T07:46:34.815Z,99.50
2018-03-16T07:49:03.125Z,99.50
2018-03-16T07:51:30.692Z,99.50
2018-03-16T07:53:58.260Z,99.40
2018-03-16T07:56:25.805Z,99.20
2018-03-16T07:58:53.370Z,98.90
2018-03-16T08:01:20.922Z,98.80
2018-03-16T08:03:49.224Z,98.70
2018-03-16T08:06:16.814Z,98.70
2018-03-16T08:08:44.394Z,98.70
2018-03-16T08:11:11.925Z,98.70
2018-03-16T08:13:39.497Z,98.60
2018-03-16T08:16:07.038Z,98.50
2018-03-16T08:18:35.393Z,98.30
2018-03-16T08:21:02.979Z,98.30
2018-03-16T08:23:31.285Z,97.90
2018-03-16T08:25:58.847Z,97.90
2018-03-16T08:28:26.407Z,97.80
2018-03-16T08:30:54.039Z,97.50
2018-03-16T08:33:21.597Z,97.60
2018-03-16T08:35:49.163Z,97.30
2018-03-16T08:38:16.714Z,97.40
2018-03-16T08:40:44.260Z,96.60
2018-03-16T08:43:11.826Z,96.20
2018-03-16T08:45:39.352Z,95.70
2018-03-16T08:48:07.715Z,95.30
2018-03-16T08:50:35.272Z,95.30
2018-03-16T08:53:02.814Z,95.10
2018-03-16T08:55:30.342Z,95.60
2018-03-16T08:57:58.678Z,94.20
2018-03-16T09:00:26.216Z,94.20
2018-03-16T09:02:53.851Z,94.20
2018-03-16T09:05:22.241Z,93.10
2018-03-16T09:07:50.549Z,93.20
2018-03-16T09:10:18.111Z,93.20
2018-03-16T09:12:45.665Z,93.20
2018-03-16T09:15:13.228Z,92.20
2018-03-16T09:17:40.802Z,92.30
2018-03-16T09:20:08.399Z,92.60
2018-03-16T09:22:35.941Z,92.30
2018-03-16T09:25:03.480Z,92.30
2018-03-16T09:27:31.835Z,92.00
2018-03-16T09:29:59.416Z,91.60
2018-03-16T09:32:26.990Z,91.80
2018-03-16T09:34:54.554Z,91.20
2018-03-16T09:37:22.867Z,91.20
2018-03-16T09:39:50.437Z,91.10
2018-03-16T09:42:18.058Z,91.10
2018-03-16T09:44:45.601Z,90.90
2018-03-16T09:47:13.154Z,90.20
2018-03-16T09:49:40.728Z,90.50
2018-03-16T09:52:08.401Z,90.50
2018-03-16T09:54:57.709Z,90.10
2018-03-16T09:57:26.014Z,87.80
2018-03-16T09:59:53.549Z,87.70
2018-03-16T10:02:21.877Z,87.30
2018-03-16T10:04:49.486Z,87.10
2018-03-16T10:07:17.031Z,85.50
2018-03-16T10:09:44.570Z,84.90
2018-03-16T10:12:12.130Z,86.40
2018-03-16T10:14:39.677Z,84.70
2018-03-16T10:17:07.249Z,83.90
2018-03-16T10:19:34.850Z,83.70
2018-03-16T10:22:02.403Z,83.60
2018-03-16T10:24:29.978Z,83.10
2018-03-16T10:26:57.534Z,80.60
2018-03-16T10:29:25.134Z,81.70
2018-03-16T10:31:52.673Z,81.20
2018-03-16T10:34:20.264Z,81.00
2018-03-16T10:36:47.830Z,81.50
2018-03-16T10:39:15.413Z,82.50
2018-03-16T10:41:43.718Z,83.10
2018-03-16T10:44:11.270Z,83.20
2018-03-16T10:46:39.572Z,84.10
2018-03-16T10:49:07.175Z,84.10
2018-03-16T10:51:34.772Z,84.00
2018-03-16T10:54:02.299Z,84.50
2018-03-16T10:56:29.839Z,84.50
2018-03-16T10:58:57.447Z,85.50
2018-03-16T11:01:25.083Z,86.70
2018-03-16T11:03:52.664Z,85.10
2018-03-16T11:06:25.919Z,84.00
2018-03-16T11:08:53.459Z,83.90
2018-03-16T11:11:22.710Z,83.10
2018-03-16T11:13:50.274Z,83.10
2018-03-16T11:16:17.822Z,82.20
2018-03-16T11:18:45.376Z,82.60
2018-03-16T11:21:13.708Z,81.80
2018-03-16T11:23:41.291Z,81.70
2018-03-16T11:26:08.851Z,80.50
2018-03-16T11:28:36.414Z,80.00
2018-03-16T11:31:03.991Z,80.10
2018-03-16T11:33:31.562Z,81.40
2018-03-16T11:35:59.109Z,81.40
2018-03-16T11:38:26.653Z,82.50
2018-03-16T11:40:54.190Z,84.90
2018-03-16T11:43:21.749Z,85.40
2018-03-16T11:45:50.064Z,87.10
2018-03-16T11:48:17.595Z,86.90
2018-03-16T11:50:45.912Z,87.90
2018-03-16T11:53:13.461Z,88.00
2018-03-16T11:55:41.284Z,87.90
2018-03-16T11:58:08.824Z,86.80
2018-03-16T12:00:36.380Z,87.80
2018-03-16T12:03:03.927Z,87.90
2018-03-16T12:05:31.488Z,88.30
2018-03-16T12:07:59.825Z,85.30
2018-03-16T12:10:27.380Z,85.20
2018-03-16T12:12:54.924Z,83.10
2018-03-16T12:15:22.479Z,81.50
2018-03-16T12:17:50.017Z,79.90
2018-03-16T12:20:18.328Z,82.00
2018-03-16T12:22:45.879Z,81.90
2018-03-16T12:25:14.315Z,79.00
2018-03-16T12:27:41.822Z,78.90
2018-03-16T12:30:10.124Z,78.80
2018-03-16T12:32:37.709Z,78.90
2018-03-16T12:35:05.224Z,78.50
2018-03-16T12:37:33.638Z,79.00
2018-03-16T12:40:01.175Z,79.00
2018-03-16T12:44:57.433Z,76.30
2018-03-16T12:47:25.741Z,76.20
2018-03-16T12:49:53.282Z,76.10
2018-03-16T12:52:21.616Z,75.50
2018-03-16T12:54:49.172Z,75.50
2018-03-16T12:57:16.760Z,74.80
2018-03-16T12:59:44.238Z,74.10
2018-03-16T13:02:11.859Z,73.60
2018-03-16T13:04:39.430Z,73.80
2018-03-16T13:07:06.994Z,75.00
2018-03-16T13:09:34.571Z,76.80
2018-03-16T13:12:02.116Z,75.90
2018-03-16T13:14:29.667Z,76.70
2018-03-16T13:16:57.978Z,76.30
2018-03-16T13:19:25.550Z,76.20
2018-03-16T13:21:53.094Z,75.90
2018-03-16T13:24:20.639Z,77.30
2018-03-16T13:26:48.946Z,72.80
2018-03-16T13:29:16.498Z,72.70
2018-03-16T13:31:44.024Z,71.30
2018-03-16T13:34:11.587Z,74.00
2018-03-16T13:36:39.106Z,75.90
2018-03-16T13:39:06.697Z,77.60
2018-03-16T13:41:34.248Z,79.30
2018-03-16T13:44:01.786Z,80.60
2018-03-16T13:46:29.364Z,81.50
2018-03-16T13:48:57.330Z,83.40
2018-03-16T13:51:24.882Z,81.30
2018-03-16T13:53:53.292Z,78.40
2018-03-16T13:56:20.849Z,78.30
2018-03-16T13:58:48.411Z,77.20
2018-03-16T14:01:15.984Z,78.10
2018-03-16T14:03:43.532Z,75.20
2018-03-16T14:06:11.939Z,72.80
2018-03-16T14:08:39.462Z,72.70
2018-03-16T14:11:07.032Z,70.40
2018-03-16T14:13:34.830Z,71.40
2018-03-16T14:16:02.365Z,67.10
2018-03-16T14:18:29.902Z,68.50
2018-03-16T14:20:57.463Z,67.80
2018-03-16T14:23:25.021Z,65.60
2018-03-16T14:25:52.559Z,67.10
2018-03-16T14:28:20.269Z,66.60
2018-03-16T14:30:47.800Z,66.80
2018-03-16T14:33:15.344Z,67.70
2018-03-16T14:35:43.666Z,68.00
2018-03-16T14:38:11.306Z,67.90
2018-03-16T14:40:38.831Z,69.60
2018-03-16T14:43:06.445Z,70.00
2018-03-16T14:45:34.160Z,70.10
2018-03-16T14:48:01.711Z,68.80
2018-03-16T14:50:29.249Z,66.90
2018-03-16T14:52:56.800Z,63.70
2018-03-16T14:55:24.345Z,64.50
2018-03-16T14:57:52.660Z,65.50
2018-03-16T15:00:20.220Z,64.70
2018-03-16T15:02:47.768Z,63.80
2018-03-16T15:05:16.085Z,61.60
2018-03-16T15:07:43.641Z,61.60
2018-03-16T15:10:11.210Z,62.50
2018-03-16T15:12:38.791Z,59.80
2018-03-16T15:15:06.330Z,59.80
2018-03-16T15:17:33.873Z,58.20
2018-03-16T15:20:02.197Z,60.00
2018-03-16T15:22:29.720Z,59.40
2018-03-16T15:24:58.058Z,59.50
2018-03-16T15:27:25.599Z,59.30
2018-03-16T15:29:53.150Z,59.70
2018-03-16T15:32:20.695Z,59.60
2018-03-16T15:34:49.007Z,56.90
2018-03-16T15:37:16.618Z,56.90
2018-03-16T15:39:44.170Z,56.60
2018-03-16T15:42:11.761Z,57.30
2018-03-16T15:44:39.364Z,58.80
2018-03-16T15:47:06.905Z,60.10
2018-03-16T15:49:34.464Z,59.50
2018-03-16T15:52:02.118Z,60.30
2018-03-16T15:54:29.669Z,61.60
2018-03-16T15:56:57.217Z,59.20
2018-03-16T15:59:24.755Z,59.90
2018-03-16T16:01:52.318Z,60.90
2018-03-16T16:04:19.863Z,60.50
2018-03-16T16:06:47.399Z,60.70
2018-03-16T16:09:14.948Z,59.90
2018-03-16T16:11:42.504Z,60.20
2018-03-16T16:14:10.465Z,59.80
2018-03-16T16:16:38.000Z,60.00
2018-03-16T16:19:06.314Z,60.90
2018-03-16T16:21:33.882Z,60.30
2018-03-16T16:24:01.475Z,60.00
2018-03-16T16:26:29.049Z,60.90
2018-03-16T16:28:56.611Z,61.30
2018-03-16T16:31:24.227Z,60.80
2018-03-16T16:33:52.576Z,61.60
2018-03-16T16:36:20.107Z,61.50
2018-03-16T16:38:47.700Z,62.70
2018-03-16T16:41:15.251Z,63.90
2018-03-16T16:43:42.791Z,63.90
2018-03-16T16:46:10.326Z,64.20
2018-03-16T16:48:38.630Z,64.40
2018-03-16T16:51:06.198Z,64.30
2018-03-16T16:53:33.728Z,64.00
2018-03-16T16:56:01.281Z,65.10
2018-03-16T16:58:28.849Z,65.20
2018-03-16T17:00:56.386Z,66.10
2018-03-16T17:03:23.968Z,66.40
2018-03-16T17:05:51.693Z,67.30
2018-03-16T17:08:19.233Z,67.80
2018-03-16T17:10:46.778Z,67.90
2018-03-16T17:13:14.318Z,68.30
2018-03-16T17:15:41.946Z,68.80
2018-03-16T17:18:10.255Z,69.30
2018-03-16T17:20:37.822Z,69.20
2018-03-16T17:23:05.377Z,69.80
2018-03-16T17:25:32.928Z,70.40
2018-03-16T17:28:00.506Z,70.50
2018-03-16T17:30:28.057Z,71.20
2018-03-16T17:32:55.638Z,71.90
2018-03-16T17:35:23.210Z,72.50
2018-03-16T17:37:50.757Z,72.50
2018-03-16T17:40:18.306Z,73.20
2018-03-16T17:42:46.647Z,74.80
2018-03-16T17:45:14.175Z,74.80
2018-03-16T17:47:41.812Z,75.50
2018-03-16T17:50:09.340Z,75.70
2018-03-16T17:52:36.949Z,76.30
2018-03-16T17:55:05.242Z,76.30
2018-03-16T17:57:33.565Z,76.70
2018-03-16T18:00:01.089Z,76.60
2018-03-16T18:02:29.408Z,77.10
2018-03-16T18:04:56.944Z,77.10
2018-03-16T18:07:25.261Z,77.30
2018-03-16T18:09:52.806Z,77.30
2018-03-16T18:12:20.360Z,77.60
2018-03-16T18:14:47.930Z,78.10
2018-03-16T18:17:15.483Z,78.20
2018-03-16T18:19:43.794Z,78.80
2018-03-16T18:22:11.339Z,78.80
2018-03-16T18:24:38.969Z,79.10
2018-03-16T18:27:06.521Z,79.40
2018-03-16T18:29:34.073Z,80.20
2018-03-16T18:32:01.628Z,80.40
2018-03-16T18:34:29.212Z,80.70
2018-03-16T18:36:56.751Z,81.30
2018-03-16T18:39:24.274Z,81.60
2018-03-16T18:41:51.862Z,81.60
2018-03-16T18:44:20.211Z,82.10
2018-03-16T18:46:47.810Z,82.10
2018-03-16T18:49:16.150Z,82.00
2018-03-16T18:51:43.856Z,81.90
2018-03-16T18:54:12.199Z,82.50
2018-03-16T18:56:39.755Z,82.50
2018-03-16T18:59:07.317Z,83.30
2018-03-16T19:01:34.888Z,84.50
2018-03-16T19:04:02.483Z,84.90
2018-03-16T19:06:30.052Z,85.10
2018-03-16T19:08:57.602Z,85.30
2018-03-16T19:11:25.496Z,86.50
2018-03-16T19:13:53.125Z,87.00
2018-03-16T19:16:20.763Z,87.00
2018-03-16T19:18:48.344Z,86.60
2018-03-16T19:21:15.892Z,87.10
2018-03-16T19:23:43.463Z,88.10
2018-03-16T19:26:11.042Z,87.90
2018-03-16T19:28:38.592Z,88.00
2018-03-16T19:31:06.157Z,89.10
2018-03-16T19:33:33.744Z,89.00
2018-03-16T19:36:01.350Z,89.10
2018-03-16T19:38:28.949Z,89.60
2018-03-16T19:40:56.615Z,89.60
2018-03-16T19:43:24.226Z,89.20
2018-03-16T19:45:52.021Z,89.00
2018-03-16T19:48:20.440Z,89.40
2018-03-16T19:50:48.098Z,89.40
2018-03-16T19:53:15.737Z,89.80
2018-03-16T19:55:44.186Z,90.00
2018-03-16T19:58:11.855Z,90.00
2018-03-16T20:00:39.554Z,89.80
2018-03-16T20:03:08.177Z,89.60
2018-03-16T20:05:36.226Z,90.00
2018-03-16T20:08:03.857Z,90.30
2018-03-16T20:10:32.428Z,90.50
2018-03-16T20:13:00.108Z,90.50
2018-03-16T20:15:27.829Z,90.30
2018-03-16T20:17:56.201Z,89.70
2018-03-16T20:20:23.801Z,89.70
2018-03-16T20:22:51.423Z,89.70
2018-03-16T20:25:18.990Z,89.80
2018-03-16T20:27:46.649Z,90.00
2018-03-16T20:30:14.290Z,89.90
2018-03-16T20:32:41.882Z,90.00
2018-03-16T20:35:10.246Z,90.10
2018-03-16T20:37:37.796Z,89.60
2018-03-16T20:40:05.695Z,90.20
2018-03-16T20:42:33.558Z,90.30
2018-03-16T20:45:01.132Z,90.30
2018-03-16T20:47:28.733Z,90.40
2018-03-16T20:49:57.069Z,91.20
2018-03-16T20:52:24.678Z,90.90
2018-03-16T20:54:52.348Z,90.80
2018-03-16T20:57:19.981Z,91.60
2018-03-16T20:59:47.614Z,92.20
2018-03-16T21:02:15.191Z,92.40
2018-03-16T21:04:42.772Z,92.60
2018-03-16T21:07:10.388Z,92.90
2018-03-16T21:09:38.722Z,93.30
2018-03-16T21:12:06.300Z,93.30
2018-03-16T21:14:33.896Z,93.30
2018-03-16T21:17:01.446Z,93.60
2018-03-16T21:19:29.032Z,93.70
2018-03-16T21:21:56.604Z,93.70
2018-03-16T21:24:24.168Z,94.00
2018-03-16T21:26:52.029Z,94.00
2018-03-16T21:29:19.619Z,94.10
2018-03-16T21:31:48.819Z,94.20
2018-03-16T21:34:17.167Z,94.30
2018-03-16T21:36:44.739Z,94.30
2018-03-16T21:39:12.315Z,94.60
2018-03-16T21:41:39.940Z,94.60
2018-03-16T21:44:07.488Z,94.70
2018-03-16T21:46:35.046Z,94.60
2018-03-16T21:49:03.362Z,94.50
2018-03-16T21:51:30.910Z,94.50
2018-03-16T21:53:58.474Z,94.60
2018-03-16T21:56:26.075Z,94.60
2018-03-16T21:58:53.646Z,94.70
2018-03-16T22:01:21.209Z,94.70
2018-03-16T22:03:48.880Z,94.60
2018-03-16T22:06:16.536Z,94.60
2018-03-16T22:08:44.846Z,94.50
2018-03-16T22:11:12.393Z,94.50
2018-03-16T22:13:39.934Z,94.70
2018-03-16T22:16:07.833Z,95.00
2018-03-16T22:18:35.416Z,95.10
2018-03-16T22:21:03.004Z,95.10
2018-03-16T22:23:31.302Z,95.50
2018-03-16T22:25:58.855Z,95.50
2018-03-16T22:28:27.206Z,96.00
2018-03-16T22:30:54.776Z,96.00
2018-03-16T22:33:22.336Z,96.20
2018-03-16T22:35:49.895Z,96.30
2018-03-16T22:38:17.468Z,96.50
2018-03-16T22:40:45.031Z,96.80
2018-03-16T22:43:12.604Z,96.80
2018-03-16T22:45:40.173Z,96.60
2018-03-16T22:48:07.743Z,96.60
2018-03-16T22:50:35.308Z,96.60
2018-03-16T22:53:02.854Z,96.60
2018-03-16T22:55:30.455Z,96.70
2018-03-16T22:57:58.805Z,96.80
2018-03-16T23:00:26.464Z,96.80
2018-03-16T23:02:54.025Z,96.90
2018-03-16T23:05:21.620Z,96.90
2018-03-16T23:07:49.189Z,96.90
2018-03-16T23:10:16.763Z,96.90
2018-03-16T23:12:44.677Z,96.90
2018-03-16T23:15:12.212Z,96.90
2018-03-16T23:17:40.547Z,97.10
2018-03-16T23:20:08.098Z,97.10
2018-03-16T23:22:35.626Z,97.00
2018-03-16T23:25:03.999Z,96.90
2018-03-16T23:27:32.300Z,96.90
2018-03-16T23:30:00.635Z,96.90
2018-03-16T23:32:28.189Z,96.90
2018-03-16T23:34:55.753Z,97.00
2018-03-16T23:37:23.309Z,97.50
2018-03-16T23:39:50.909Z,97.10
2018-03-16T23:42:18.471Z,97.00
2018-03-16T23:44:46.015Z,96.90
2018-03-16T23:47:13.557Z,96.90
2018-03-16T23:49:41.130Z,97.00
2018-03-16T23:52:08.688Z,97.00
2018-03-16T23:54:36.222Z,97.30
2018-03-16T23:57:03.780Z,97.70
2018-03-16T23:59:31.339Z,97.70
